sensor_id;sensor_type;location;lat;lon;timestamp;temperature;humidity
41437;DHT22;27178;49.460;10.850;2022-08-27T00:02:13;21.80;99.40
41437;DHT22;27178;49.460;10.850;2022-08-27T00:04:42;21.80;99.40
41437;DHT22;27178;49.460;10.850;2022-08-27T00:07:11;21.80;99.50
41437;DHT22;27178;49.460;10.850;2022-08-27T00:09:40;21.80;99.60
41437;DHT22;27178;49.460;10.850;2022-08-27T00:12:10;21.80;99.60
41437;DHT22;27178;49.460;10.850;2022-08-27T00:14:38;21.80;99.60
41437;DHT22;27178;49.460;10.850;2022-08-27T00:17:08;21.80;99.60
41437;DHT22;27178;49.460;10.850;2022-08-27T00:19:37;21.80;99.50
41437;DHT22;27178;49.460;10.850;2022-08-27T00:22:07;21.90;99.50
41437;DHT22;27178;49.460;10.850;2022-08-27T00:24:36;21.90;99.50
41437;DHT22;27178;49.460;10.850;2022-08-27T00:27:15;21.90;99.50
41437;DHT22;27178;49.460;10.850;2022-08-27T00:29:44;21.90;99.50
41437;DHT22;27178;49.460;10.850;2022-08-27T00:32:14;21.90;99.40
41437;DHT22;27178;49.460;10.850;2022-08-27T00:34:43;21.90;99.40
41437;DHT22;27178;49.460;10.850;2022-08-27T00:37:11;21.90;99.30
41437;DHT22;27178;49.460;10.850;2022-08-27T00:39:40;21.80;99.20
41437;DHT22;27178;49.460;10.850;2022-08-27T00:42:08;21.80;99.40
41437;DHT22;27178;49.460;10.850;2022-08-27T00:44:37;21.80;99.40
41437;DHT22;27178;49.460;10.850;2022-08-27T00:47:10;21.80;99.30
41437;DHT22;27178;49.460;10.850;2022-08-27T00:49:44;21.80;99.40
41437;DHT22;27178;49.460;10.850;2022-08-27T00:52:21;21.80;99.50
41437;DHT22;27178;49.460;10.850;2022-08-27T00:54:52;21.80;99.50
41437;DHT22;27178;49.460;10.850;2022-08-27T00:57:21;21.80;99.40
41437;DHT22;27178;49.460;10.850;2022-08-27T00:59:50;21.80;99.50
41437;DHT22;27178;49.460;10.850;2022-08-27T01:02:18;21.80;99.50
41437;DHT22;27178;49.460;10.850;2022-08-27T01:04:52;21.80;99.50
41437;DHT22;27178;49.460;10.850;2022-08-27T01:07:23;21.80;99.70
41437;DHT22;27178;49.460;10.850;2022-08-27T01:09:56;21.80;99.50
41437;DHT22;27178;49.460;10.850;2022-08-27T01:12:26;21.80;99.60
41437;DHT22;27178;49.460;10.850;2022-08-27T01:14:56;21.80;99.60
41437;DHT22;27178;49.460;10.850;2022-08-27T01:17:25;21.80;99.60
41437;DHT22;27178;49.460;10.850;2022-08-27T01:19:57;21.80;99.60
41437;DHT22;27178;49.460;10.850;2022-08-27T01:22:32;21.80;99.50
41437;DHT22;27178;49.460;10.850;2022-08-27T01:25:07;21.80;99.40
41437;DHT22;27178;49.460;10.850;2022-08-27T01:27:36;21.80;99.30
41437;DHT22;27178;49.460;10.850;2022-08-27T01:30:09;21.80;99.20
41437;DHT22;27178;49.460;10.850;2022-08-27T01:32:38;21.70;99.20
41437;DHT22;27178;49.460;10.850;2022-08-27T01:35:10;21.70;99.20
41437;DHT22;27178;49.460;10.850;2022-08-27T01:37:40;21.70;99.30
41437;DHT22;27178;49.460;10.850;2022-08-27T01:40:12;21.70;99.30
41437;DHT22;27178;49.460;10.850;2022-08-27T01:42:44;21.70;99.40
41437;DHT22;27178;49.460;10.850;2022-08-27T01:45:15;21.70;99.60
41437;DHT22;27178;49.460;10.850;2022-08-27T01:47:44;21.70;99.30
41437;DHT22;27178;49.460;10.850;2022-08-27T01:50:15;21.70;99.20
41437;DHT22;27178;49.460;10.850;2022-08-27T01:52:44;21.70;99.00
41437;DHT22;27178;49.460;10.850;2022-08-27T01:55:16;21.70;99.00
41437;DHT22;27178;49.460;10.850;2022-08-27T01:57:46;21.60;99.20
41437;DHT22;27178;49.460;10.850;2022-08-27T02:00:18;21.60;99.20
41437;DHT22;27178;49.460;10.850;2022-08-27T02:02:48;21.60;99.30
41437;DHT22;27178;49.460;10.850;2022-08-27T02:05:17;21.70;99.30
41437;DHT22;27178;49.460;10.850;2022-08-27T02:07:45;21.70;99.40
41437;DHT22;27178;49.460;10.850;2022-08-27T02:10:18;21.60;99.30
41437;DHT22;27178;49.460;10.850;2022-08-27T02:12:47;21.70;99.40
41437;DHT22;27178;49.460;10.850;2022-08-27T02:15:17;21.70;99.30
41437;DHT22;27178;49.460;10.850;2022-08-27T02:17:45;21.70;99.30
41437;DHT22;27178;49.460;10.850;2022-08-27T02:20:15;21.70;99.30
41437;DHT22;27178;49.460;10.850;2022-08-27T02:22:43;21.70;99.20
41437;DHT22;27178;49.460;10.850;2022-08-27T02:25:15;21.70;99.00
41437;DHT22;27178;49.460;10.850;2022-08-27T02:27:48;21.70;99.00
41437;DHT22;27178;49.460;10.850;2022-08-27T02:30:18;21.70;98.90
41437;DHT22;27178;49.460;10.850;2022-08-27T02:32:47;21.70;98.80
41437;DHT22;27178;49.460;10.850;2022-08-27T02:35:18;21.60;98.80
41437;DHT22;27178;49.460;10.850;2022-08-27T02:37:46;21.60;98.80
41437;DHT22;27178;49.460;10.850;2022-08-27T02:40:18;21.60;98.90
41437;DHT22;27178;49.460;10.850;2022-08-27T02:46:35;21.70;99.10
41437;DHT22;27178;49.460;10.850;2022-08-27T02:49:03;21.70;98.80
41437;DHT22;27178;49.460;10.850;2022-08-27T02:51:32;21.60;98.70
41437;DHT22;27178;49.460;10.850;2022-08-27T02:54:01;21.60;98.60
41437;DHT22;27178;49.460;10.850;2022-08-27T02:56:30;21.60;98.40
41437;DHT22;27178;49.460;10.850;2022-08-27T02:58:59;21.60;98.50
41437;DHT22;27178;49.460;10.850;2022-08-27T03:01:28;21.60;98.50
41437;DHT22;27178;49.460;10.850;2022-08-27T03:03:56;21.60;98.60
41437;DHT22;27178;49.460;10.850;2022-08-27T03:06:24;21.60;98.80
41437;DHT22;27178;49.460;10.850;2022-08-27T03:08:52;21.60;98.70
41437;DHT22;27178;49.460;10.850;2022-08-27T03:11:21;21.60;98.60
41437;DHT22;27178;49.460;10.850;2022-08-27T03:13:51;21.70;98.60
41437;DHT22;27178;49.460;10.850;2022-08-27T03:16:19;21.60;98.70
41437;DHT22;27178;49.460;10.850;2022-08-27T03:18:48;21.60;98.70
41437;DHT22;27178;49.460;10.850;2022-08-27T03:21:17;21.60;98.70
41437;DHT22;27178;49.460;10.850;2022-08-27T03:23:47;20.80;98.40
41437;DHT22;27178;49.460;10.850;2022-08-27T03:26:16;21.60;98.60
41437;DHT22;27178;49.460;10.850;2022-08-27T03:28:45;21.60;98.60
41437;DHT22;27178;49.460;10.850;2022-08-27T03:31:16;21.70;98.70
41437;DHT22;27178;49.460;10.850;2022-08-27T03:33:54;21.60;98.70
41437;DHT22;27178;49.460;10.850;2022-08-27T03:36:23;21.60;98.70
41437;DHT22;27178;49.460;10.850;2022-08-27T03:38:51;21.60;98.60
41437;DHT22;27178;49.460;10.850;2022-08-27T03:41:20;21.60;98.60
41437;DHT22;27178;49.460;10.850;2022-08-27T03:44:05;21.70;98.70
41437;DHT22;27178;49.460;10.850;2022-08-27T03:46:35;21.70;98.70
41437;DHT22;27178;49.460;10.850;2022-08-27T03:49:03;21.70;98.60
41437;DHT22;27178;49.460;10.850;2022-08-27T03:51:32;21.70;98.50
41437;DHT22;27178;49.460;10.850;2022-08-27T03:54:00;21.70;98.50
41437;DHT22;27178;49.460;10.850;2022-08-27T03:56:29;21.70;98.50
41437;DHT22;27178;49.460;10.850;2022-08-27T03:59:05;21.70;98.50
41437;DHT22;27178;49.460;10.850;2022-08-27T04:01:35;21.70;98.40
41437;DHT22;27178;49.460;10.850;2022-08-27T04:04:04;21.70;98.30
41437;DHT22;27178;49.460;10.850;2022-08-27T04:06:33;21.70;98.40
41437;DHT22;27178;49.460;10.850;2022-08-27T04:09:02;21.70;98.40
41437;DHT22;27178;49.460;10.850;2022-08-27T04:11:32;21.70;98.30
41437;DHT22;27178;49.460;10.850;2022-08-27T04:14:02;21.70;98.30
41437;DHT22;27178;49.460;10.850;2022-08-27T04:16:53;21.70;98.20
41437;DHT22;27178;49.460;10.850;2022-08-27T04:19:23;21.70;98.10
41437;DHT22;27178;49.460;10.850;2022-08-27T04:21:57;21.70;98.10
41437;DHT22;27178;49.460;10.850;2022-08-27T04:24:30;21.70;98.20
41437;DHT22;27178;49.460;10.850;2022-08-27T04:27:03;21.60;98.00
41437;DHT22;27178;49.460;10.850;2022-08-27T04:29:32;21.60;98.10
41437;DHT22;27178;49.460;10.850;2022-08-27T04:32:03;21.60;98.00
41437;DHT22;27178;49.460;10.850;2022-08-27T04:34:32;21.60;98.10
41437;DHT22;27178;49.460;10.850;2022-08-27T04:37:01;21.70;98.20
41437;DHT22;27178;49.460;10.850;2022-08-27T04:39:29;21.70;98.10
41437;DHT22;27178;49.460;10.850;2022-08-27T04:41:59;21.70;98.00
41437;DHT22;27178;49.460;10.850;2022-08-27T04:44:30;21.70;97.90
41437;DHT22;27178;49.460;10.850;2022-08-27T04:47:01;21.70;98.10
41437;DHT22;27178;49.460;10.850;2022-08-27T04:49:31;21.70;98.00
41437;DHT22;27178;49.460;10.850;2022-08-27T04:52:00;21.70;98.00
41437;DHT22;27178;49.460;10.850;2022-08-27T04:54:28;21.70;97.90
41437;DHT22;27178;49.460;10.850;2022-08-27T04:56:59;21.70;97.90
41437;DHT22;27178;49.460;10.850;2022-08-27T04:59:29;21.80;97.80
41437;DHT22;27178;49.460;10.850;2022-08-27T05:01:57;21.80;97.60
41437;DHT22;27178;49.460;10.850;2022-08-27T05:04:34;21.70;97.60
41437;DHT22;27178;49.460;10.850;2022-08-27T05:07:02;21.80;97.60
41437;DHT22;27178;49.460;10.850;2022-08-27T05:09:31;21.80;97.40
41437;DHT22;27178;49.460;10.850;2022-08-27T05:12:00;21.80;97.30
41437;DHT22;27178;49.460;10.850;2022-08-27T05:14:28;21.70;97.30
41437;DHT22;27178;49.460;10.850;2022-08-27T05:16:59;21.70;97.30
41437;DHT22;27178;49.460;10.850;2022-08-27T05:19:28;21.80;97.40
41437;DHT22;27178;49.460;10.850;2022-08-27T05:21:58;21.80;97.40
41437;DHT22;27178;49.460;10.850;2022-08-27T05:24:26;21.80;97.40
41437;DHT22;27178;49.460;10.850;2022-08-27T05:26:55;21.80;97.40
41437;DHT22;27178;49.460;10.850;2022-08-27T05:29:23;21.80;97.20
41437;DHT22;27178;49.460;10.850;2022-08-27T05:31:51;21.90;97.10
41437;DHT22;27178;49.460;10.850;2022-08-27T05:34:21;21.90;97.20
41437;DHT22;27178;49.460;10.850;2022-08-27T05:36:52;21.90;97.20
41437;DHT22;27178;49.460;10.850;2022-08-27T05:39:22;21.90;97.20
41437;DHT22;27178;49.460;10.850;2022-08-27T05:41:50;21.90;97.10
41437;DHT22;27178;49.460;10.850;2022-08-27T05:44:19;21.90;97.30
41437;DHT22;27178;49.460;10.850;2022-08-27T05:47:07;21.90;97.10
41437;DHT22;27178;49.460;10.850;2022-08-27T05:49:36;21.90;97.00
41437;DHT22;27178;49.460;10.850;2022-08-27T05:52:07;22.00;97.00
41437;DHT22;27178;49.460;10.850;2022-08-27T05:54:37;22.00;97.00
41437;DHT22;27178;49.460;10.850;2022-08-27T05:57:07;22.00;97.00
41437;DHT22;27178;49.460;10.850;2022-08-27T05:59:35;22.00;97.00
41437;DHT22;27178;49.460;10.850;2022-08-27T06:02:21;22.00;96.90
41437;DHT22;27178;49.460;10.850;2022-08-27T06:04:50;22.00;96.80
41437;DHT22;27178;49.460;10.850;2022-08-27T06:07:19;22.10;97.00
41437;DHT22;27178;49.460;10.850;2022-08-27T06:09:49;22.10;97.00
41437;DHT22;27178;49.460;10.850;2022-08-27T06:12:17;22.10;96.90
41437;DHT22;27178;49.460;10.850;2022-08-27T06:14:53;22.10;96.90
41437;DHT22;27178;49.460;10.850;2022-08-27T06:17:22;22.20;97.00
41437;DHT22;27178;49.460;10.850;2022-08-27T06:19:50;22.10;96.80
41437;DHT22;27178;49.460;10.850;2022-08-27T06:22:18;22.20;96.70
41437;DHT22;27178;49.460;10.850;2022-08-27T06:24:48;22.20;96.60
41437;DHT22;27178;49.460;10.850;2022-08-27T06:27:18;22.20;96.70
41437;DHT22;27178;49.460;10.850;2022-08-27T06:29:46;22.20;96.60
41437;DHT22;27178;49.460;10.850;2022-08-27T06:32:14;22.30;96.70
41437;DHT22;27178;49.460;10.850;2022-08-27T06:34:43;22.30;96.70
41437;DHT22;27178;49.460;10.850;2022-08-27T06:37:11;22.30;96.70
41437;DHT22;27178;49.460;10.850;2022-08-27T06:39:39;22.30;96.80
41437;DHT22;27178;49.460;10.850;2022-08-27T06:42:11;22.40;96.80
41437;DHT22;27178;49.460;10.850;2022-08-27T06:44:39;22.40;96.80
41437;DHT22;27178;49.460;10.850;2022-08-27T06:47:08;22.40;96.80
41437;DHT22;27178;49.460;10.850;2022-08-27T06:49:38;22.50;96.70
41437;DHT22;27178;49.460;10.850;2022-08-27T06:52:09;22.50;96.70
41437;DHT22;27178;49.460;10.850;2022-08-27T06:54:37;22.50;96.60
41437;DHT22;27178;49.460;10.850;2022-08-27T06:57:06;22.50;96.50
41437;DHT22;27178;49.460;10.850;2022-08-27T06:59:36;22.60;96.60
41437;DHT22;27178;49.460;10.850;2022-08-27T07:02:06;22.60;96.60
41437;DHT22;27178;49.460;10.850;2022-08-27T07:04:34;22.60;96.60
41437;DHT22;27178;49.460;10.850;2022-08-27T07:07:03;22.60;96.60
41437;DHT22;27178;49.460;10.850;2022-08-27T07:09:33;22.70;96.50
41437;DHT22;27178;49.460;10.850;2022-08-27T07:12:01;22.70;96.50
41437;DHT22;27178;49.460;10.850;2022-08-27T07:14:31;22.70;96.50
41437;DHT22;27178;49.460;10.850;2022-08-27T07:17:05;22.70;96.50
41437;DHT22;27178;49.460;10.850;2022-08-27T07:19:41;22.70;96.40
41437;DHT22;27178;49.460;10.850;2022-08-27T07:22:10;22.80;96.40
41437;DHT22;27178;49.460;10.850;2022-08-27T07:24:39;22.80;96.40
41437;DHT22;27178;49.460;10.850;2022-08-27T07:27:07;22.80;96.70
41437;DHT22;27178;49.460;10.850;2022-08-27T07:29:36;22.90;96.30
41437;DHT22;27178;49.460;10.850;2022-08-27T07:32:06;22.90;96.30
41437;DHT22;27178;49.460;10.850;2022-08-27T07:34:34;22.90;96.30
41437;DHT22;27178;49.460;10.850;2022-08-27T07:37:02;22.90;96.30
41437;DHT22;27178;49.460;10.850;2022-08-27T07:39:31;22.90;96.30
41437;DHT22;27178;49.460;10.850;2022-08-27T07:41:59;22.90;96.60
41437;DHT22;27178;49.460;10.850;2022-08-27T07:44:45;23.00;96.30
41437;DHT22;27178;49.460;10.850;2022-08-27T07:47:15;23.00;96.30
41437;DHT22;27178;49.460;10.850;2022-08-27T07:49:43;23.00;96.30
41437;DHT22;27178;49.460;10.850;2022-08-27T07:52:14;23.10;96.40
41437;DHT22;27178;49.460;10.850;2022-08-27T07:54:43;23.10;96.40
41437;DHT22;27178;49.460;10.850;2022-08-27T07:57:11;23.10;96.40
41437;DHT22;27178;49.460;10.850;2022-08-27T07:59:40;23.20;96.30
41437;DHT22;27178;49.460;10.850;2022-08-27T08:02:08;23.20;96.00
41437;DHT22;27178;49.460;10.850;2022-08-27T08:04:40;23.20;95.80
41437;DHT22;27178;49.460;10.850;2022-08-27T08:07:09;23.20;95.50
41437;DHT22;27178;49.460;10.850;2022-08-27T08:09:37;23.20;95.40
41437;DHT22;27178;49.460;10.850;2022-08-27T08:12:06;23.20;95.10
41437;DHT22;27178;49.460;10.850;2022-08-27T08:14:35;23.20;95.00
41437;DHT22;27178;49.460;10.850;2022-08-27T08:17:03;23.20;94.90
41437;DHT22;27178;49.460;10.850;2022-08-27T08:19:36;23.20;94.80
41437;DHT22;27178;49.460;10.850;2022-08-27T08:22:06;23.20;94.70
41437;DHT22;27178;49.460;10.850;2022-08-27T08:24:35;23.20;94.50
41437;DHT22;27178;49.460;10.850;2022-08-27T08:27:04;23.20;94.50
41437;DHT22;27178;49.460;10.850;2022-08-27T08:29:34;23.20;94.50
41437;DHT22;27178;49.460;10.850;2022-08-27T08:32:03;23.20;94.50
41437;DHT22;27178;49.460;10.850;2022-08-27T08:34:32;23.20;94.40
41437;DHT22;27178;49.460;10.850;2022-08-27T08:37:02;23.20;94.40
41437;DHT22;27178;49.460;10.850;2022-08-27T08:39:32;23.20;94.40
41437;DHT22;27178;49.460;10.850;2022-08-27T08:42:04;23.20;94.40
41437;DHT22;27178;49.460;10.850;2022-08-27T08:44:35;23.20;94.20
41437;DHT22;27178;49.460;10.850;2022-08-27T08:47:08;23.20;94.20
41437;DHT22;27178;49.460;10.850;2022-08-27T08:49:43;23.20;94.20
41437;DHT22;27178;49.460;10.850;2022-08-27T08:52:20;23.20;94.20
41437;DHT22;27178;49.460;10.850;2022-08-27T08:55:07;23.20;94.00
41437;DHT22;27178;49.460;10.850;2022-08-27T08:57:41;23.20;93.90
41437;DHT22;27178;49.460;10.850;2022-08-27T09:00:13;23.20;93.90
41437;DHT22;27178;49.460;10.850;2022-08-27T09:02:47;23.20;94.00
41437;DHT22;27178;49.460;10.850;2022-08-27T09:05:18;23.20;93.60
41437;DHT22;27178;49.460;10.850;2022-08-27T09:08:00;23.20;93.90
41437;DHT22;27178;49.460;10.850;2022-08-27T09:10:57;23.20;93.70
41437;DHT22;27178;49.460;10.850;2022-08-27T09:13:30;23.20;93.60
41437;DHT22;27178;49.460;10.850;2022-08-27T09:16:02;23.20;93.70
41437;DHT22;27178;49.460;10.850;2022-08-27T09:18:35;23.20;93.50
41437;DHT22;27178;49.460;10.850;2022-08-27T09:21:13;23.20;93.60
41437;DHT22;27178;49.460;10.850;2022-08-27T09:24:03;23.30;93.80
41437;DHT22;27178;49.460;10.850;2022-08-27T09:26:38;23.30;93.40
41437;DHT22;27178;49.460;10.850;2022-08-27T09:29:09;23.30;93.50
41437;DHT22;27178;49.460;10.850;2022-08-27T09:31:54;23.20;93.60
41437;DHT22;27178;49.460;10.850;2022-08-27T09:34:25;23.20;93.10
41437;DHT22;27178;49.460;10.850;2022-08-27T09:36:59;23.20;93.40
41437;DHT22;27178;49.460;10.850;2022-08-27T09:39:34;23.10;93.50
41437;DHT22;27178;49.460;10.850;2022-08-27T09:42:17;23.10;93.60
41437;DHT22;27178;49.460;10.850;2022-08-27T09:44:49;23.10;93.90
41437;DHT22;27178;49.460;10.850;2022-08-27T09:47:21;23.10;94.10
41437;DHT22;27178;49.460;10.850;2022-08-27T09:50:01;23.20;94.10
41437;DHT22;27178;49.460;10.850;2022-08-27T09:52:35;23.20;93.50
41437;DHT22;27178;49.460;10.850;2022-08-27T09:55:05;23.30;93.90
41437;DHT22;27178;49.460;10.850;2022-08-27T09:57:38;23.30;93.80
41437;DHT22;27178;49.460;10.850;2022-08-27T10:00:14;23.30;93.30
41437;DHT22;27178;49.460;10.850;2022-08-27T10:02:49;23.40;93.10
41437;DHT22;27178;49.460;10.850;2022-08-27T10:05:25;23.40;93.00
41437;DHT22;27178;49.460;10.850;2022-08-27T10:07:58;23.40;93.00
41437;DHT22;27178;49.460;10.850;2022-08-27T10:10:36;23.50;93.30
41437;DHT22;27178;49.460;10.850;2022-08-27T10:13:13;23.50;92.70
41437;DHT22;27178;49.460;10.850;2022-08-27T10:15:51;23.50;92.90
41437;DHT22;27178;49.460;10.850;2022-08-27T10:18:26;23.50;92.70
41437;DHT22;27178;49.460;10.850;2022-08-27T10:21:03;23.50;92.70
41437;DHT22;27178;49.460;10.850;2022-08-27T10:23:38;23.60;92.50
41437;DHT22;27178;49.460;10.850;2022-08-27T10:26:16;23.60;92.40
41437;DHT22;27178;49.460;10.850;2022-08-27T10:28:58;23.60;92.50
41437;DHT22;27178;49.460;10.850;2022-08-27T10:31:34;23.60;92.10
41437;DHT22;27178;49.460;10.850;2022-08-27T10:34:16;23.60;92.30
41437;DHT22;27178;49.460;10.850;2022-08-27T10:36:56;23.60;92.00
41437;DHT22;27178;49.460;10.850;2022-08-27T10:39:46;23.60;92.10
41437;DHT22;27178;49.460;10.850;2022-08-27T10:42:22;23.70;91.90
41437;DHT22;27178;49.460;10.850;2022-08-27T10:45:10;23.70;92.10
41437;DHT22;27178;49.460;10.850;2022-08-27T10:48:03;23.70;92.10
41437;DHT22;27178;49.460;10.850;2022-08-27T10:50:40;23.70;92.50
41437;DHT22;27178;49.460;10.850;2022-08-27T10:53:19;23.80;92.40
41437;DHT22;27178;49.460;10.850;2022-08-27T10:55:54;23.80;92.10
41437;DHT22;27178;49.460;10.850;2022-08-27T10:58:35;23.80;92.40
41437;DHT22;27178;49.460;10.850;2022-08-27T11:01:14;23.90;92.10
41437;DHT22;27178;49.460;10.850;2022-08-27T11:03:49;23.90;91.90
41437;DHT22;27178;49.460;10.850;2022-08-27T11:06:22;24.00;92.00
41437;DHT22;27178;49.460;10.850;2022-08-27T11:08:55;24.00;92.30
41437;DHT22;27178;49.460;10.850;2022-08-27T11:11:36;24.10;92.10
41437;DHT22;27178;49.460;10.850;2022-08-27T11:14:29;24.10;92.00
41437;DHT22;27178;49.460;10.850;2022-08-27T11:17:03;24.10;92.10
41437;DHT22;27178;49.460;10.850;2022-08-27T11:19:43;24.20;91.70
41437;DHT22;27178;49.460;10.850;2022-08-27T11:22:18;24.20;91.60
41437;DHT22;27178;49.460;10.850;2022-08-27T11:24:58;24.20;91.80
41437;DHT22;27178;49.460;10.850;2022-08-27T11:27:30;24.30;91.40
41437;DHT22;27178;49.460;10.850;2022-08-27T11:30:06;24.30;91.60
41437;DHT22;27178;49.460;10.850;2022-08-27T11:32:46;24.30;91.60
41437;DHT22;27178;49.460;10.850;2022-08-27T11:35:20;24.30;91.20
41437;DHT22;27178;49.460;10.850;2022-08-27T11:38:09;24.40;91.70
41437;DHT22;27178;49.460;10.850;2022-08-27T11:43:32;24.40;91.20
41437;DHT22;27178;49.460;10.850;2022-08-27T11:46:04;24.50;91.40
41437;DHT22;27178;49.460;10.850;2022-08-27T11:48:38;24.50;91.50
41437;DHT22;27178;49.460;10.850;2022-08-27T11:51:10;24.50;91.20
41437;DHT22;27178;49.460;10.850;2022-08-27T11:53:55;24.50;91.10
41437;DHT22;27178;49.460;10.850;2022-08-27T11:56:38;24.60;90.80
41437;DHT22;27178;49.460;10.850;2022-08-27T11:59:19;24.70;90.90
41437;DHT22;27178;49.460;10.850;2022-08-27T12:01:50;24.80;91.40
41437;DHT22;27178;49.460;10.850;2022-08-27T12:04:31;24.80;91.40
41437;DHT22;27178;49.460;10.850;2022-08-27T12:07:03;24.90;90.90
41437;DHT22;27178;49.460;10.850;2022-08-27T12:09:50;25.00;91.80
41437;DHT22;27178;49.460;10.850;2022-08-27T12:12:24;25.20;90.40
41437;DHT22;27178;49.460;10.850;2022-08-27T12:15:06;25.30;91.50
41437;DHT22;27178;49.460;10.850;2022-08-27T12:17:41;25.50;91.60
41437;DHT22;27178;49.460;10.850;2022-08-27T12:20:20;25.60;90.90
41437;DHT22;27178;49.460;10.850;2022-08-27T12:23:04;25.70;89.80
41437;DHT22;27178;49.460;10.850;2022-08-27T12:25:56;25.70;89.00
41437;DHT22;27178;49.460;10.850;2022-08-27T12:28:27;25.80;89.00
41437;DHT22;27178;49.460;10.850;2022-08-27T12:30:55;25.80;90.00
41437;DHT22;27178;49.460;10.850;2022-08-27T12:33:29;25.80;89.50
41437;DHT22;27178;49.460;10.850;2022-08-27T12:36:09;25.80;88.00
41437;DHT22;27178;49.460;10.850;2022-08-27T12:38:43;25.80;87.30
41437;DHT22;27178;49.460;10.850;2022-08-27T12:41:24;25.90;88.40
41437;DHT22;27178;49.460;10.850;2022-08-27T12:44:03;25.90;88.00
41437;DHT22;27178;49.460;10.850;2022-08-27T12:46:32;25.90;88.20
41437;DHT22;27178;49.460;10.850;2022-08-27T12:49:03;26.00;89.60
41437;DHT22;27178;49.460;10.850;2022-08-27T12:51:54;26.00;89.10
41437;DHT22;27178;49.460;10.850;2022-08-27T12:54:35;26.10;88.30
41437;DHT22;27178;49.460;10.850;2022-08-27T12:57:18;26.10;86.60
41437;DHT22;27178;49.460;10.850;2022-08-27T13:00:05;26.10;87.00
41437;DHT22;27178;49.460;10.850;2022-08-27T13:03:08;26.10;85.60
41437;DHT22;27178;49.460;10.850;2022-08-27T13:05:43;26.10;86.10
41437;DHT22;27178;49.460;10.850;2022-08-27T13:08:22;26.20;88.40
41437;DHT22;27178;49.460;10.850;2022-08-27T13:10:51;26.20;87.30
41437;DHT22;27178;49.460;10.850;2022-08-27T13:13:21;26.30;88.60
41437;DHT22;27178;49.460;10.850;2022-08-27T13:15:53;26.40;89.00
41437;DHT22;27178;49.460;10.850;2022-08-27T13:18:23;26.50;88.10
41437;DHT22;27178;49.460;10.850;2022-08-27T13:21:01;26.70;87.50
41437;DHT22;27178;49.460;10.850;2022-08-27T13:23:32;26.80;86.90
41437;DHT22;27178;49.460;10.850;2022-08-27T13:26:05;27.00;87.50
41437;DHT22;27178;49.460;10.850;2022-08-27T13:28:35;27.00;87.20
41437;DHT22;27178;49.460;10.850;2022-08-27T13:31:06;27.20;86.50
41437;DHT22;27178;49.460;10.850;2022-08-27T13:33:38;27.30;86.50
41437;DHT22;27178;49.460;10.850;2022-08-27T13:36:08;27.50;86.30
41437;DHT22;27178;49.460;10.850;2022-08-27T13:38:42;27.60;85.70
41437;DHT22;27178;49.460;10.850;2022-08-27T13:41:28;27.70;83.50
41437;DHT22;27178;49.460;10.850;2022-08-27T13:44:05;27.80;82.80
41437;DHT22;27178;49.460;10.850;2022-08-27T13:46:42;27.80;80.60
41437;DHT22;27178;49.460;10.850;2022-08-27T13:49:16;27.80;80.90
41437;DHT22;27178;49.460;10.850;2022-08-27T13:51:45;27.80;81.10
41437;DHT22;27178;49.460;10.850;2022-08-27T13:54:19;27.70;81.10
41437;DHT22;27178;49.460;10.850;2022-08-27T13:56:57;27.60;78.90
41437;DHT22;27178;49.460;10.850;2022-08-27T13:59:30;27.50;79.60
41437;DHT22;27178;49.460;10.850;2022-08-27T14:02:01;27.50;80.70
41437;DHT22;27178;49.460;10.850;2022-08-27T14:04:36;27.40;78.60
41437;DHT22;27178;49.460;10.850;2022-08-27T14:07:10;27.30;78.90
41437;DHT22;27178;49.460;10.850;2022-08-27T14:09:44;27.20;78.50
41437;DHT22;27178;49.460;10.850;2022-08-27T14:12:27;27.00;77.90
41437;DHT22;27178;49.460;10.850;2022-08-27T14:15:11;27.00;75.40
41437;DHT22;27178;49.460;10.850;2022-08-27T14:17:42;26.90;76.80
41437;DHT22;27178;49.460;10.850;2022-08-27T14:20:14;26.80;78.20
41437;DHT22;27178;49.460;10.850;2022-08-27T14:22:43;26.70;77.60
41437;DHT22;27178;49.460;10.850;2022-08-27T14:25:13;26.60;76.00
41437;DHT22;27178;49.460;10.850;2022-08-27T14:27:45;26.40;77.00
41437;DHT22;27178;49.460;10.850;2022-08-27T14:30:23;26.40;77.70
41437;DHT22;27178;49.460;10.850;2022-08-27T14:32:56;26.30;77.60
41437;DHT22;27178;49.460;10.850;2022-08-27T14:35:27;26.20;78.10
41437;DHT22;27178;49.460;10.850;2022-08-27T14:37:57;26.20;78.60
41437;DHT22;27178;49.460;10.850;2022-08-27T14:40:27;26.10;79.20
41437;DHT22;27178;49.460;10.850;2022-08-27T14:42:58;26.00;79.10
41437;DHT22;27178;49.460;10.850;2022-08-27T14:45:27;26.00;79.90
41437;DHT22;27178;49.460;10.850;2022-08-27T14:47:55;25.90;79.50
41437;DHT22;27178;49.460;10.850;2022-08-27T14:50:28;25.90;81.60
41437;DHT22;27178;49.460;10.850;2022-08-27T14:52:56;25.90;80.70
41437;DHT22;27178;49.460;10.850;2022-08-27T14:55:26;25.90;81.00
41437;DHT22;27178;49.460;10.850;2022-08-27T14:57:56;25.90;80.70
41437;DHT22;27178;49.460;10.850;2022-08-27T15:00:25;25.90;80.60
41437;DHT22;27178;49.460;10.850;2022-08-27T15:02:56;25.80;79.70
41437;DHT22;27178;49.460;10.850;2022-08-27T15:05:25;25.80;79.10
41437;DHT22;27178;49.460;10.850;2022-08-27T15:07:54;25.80;79.30
41437;DHT22;27178;49.460;10.850;2022-08-27T15:10:24;25.80;79.70
41437;DHT22;27178;49.460;10.850;2022-08-27T15:12:54;25.80;79.70
41437;DHT22;27178;49.460;10.850;2022-08-27T15:15:24;25.80;79.10
41437;DHT22;27178;49.460;10.850;2022-08-27T15:17:52;25.80;78.80
41437;DHT22;27178;49.460;10.850;2022-08-27T15:20:21;25.80;78.60
41437;DHT22;27178;49.460;10.850;2022-08-27T15:22:50;25.80;78.60
41437;DHT22;27178;49.460;10.850;2022-08-27T15:25:20;25.70;78.30
41437;DHT22;27178;49.460;10.850;2022-08-27T15:27:49;25.70;78.80
41437;DHT22;27178;49.460;10.850;2022-08-27T15:30:24;25.70;79.00
41437;DHT22;27178;49.460;10.850;2022-08-27T15:32:53;25.70;78.60
41437;DHT22;27178;49.460;10.850;2022-08-27T15:35:24;25.70;79.20
41437;DHT22;27178;49.460;10.850;2022-08-27T15:37:54;25.70;79.20
41437;DHT22;27178;49.460;10.850;2022-08-27T15:40:24;25.60;79.20
41437;DHT22;27178;49.460;10.850;2022-08-27T15:42:57;25.60;79.20
41437;DHT22;27178;49.460;10.850;2022-08-27T15:45:28;25.60;79.80
41437;DHT22;27178;49.460;10.850;2022-08-27T15:47:57;25.60;79.20
41437;DHT22;27178;49.460;10.850;2022-08-27T15:50:27;25.50;79.30
41437;DHT22;27178;49.460;10.850;2022-08-27T15:53:00;25.50;78.90
41437;DHT22;27178;49.460;10.850;2022-08-27T15:55:32;25.50;78.80